sensor_id;sensor_type;location;lat;lon;timestamp;pressure;altitude;pressure_sealevel;temperature;humidity
18145;BME280;14857;41.200;-8.326;2022-09-13T00:01:17;98557.66;;;20.80;100.00
18145;BME280;14857;41.200;-8.326;2022-09-13T00:03:45;98545.44;;;20.72;100.00
18145;BME280;14857;41.200;-8.326;2022-09-13T00:06:15;98527.75;;;20.91;100.00
18145;BME280;14857;41.200;-8.326;2022-09-13T00:08:45;98500.16;;;20.92;100.00
18145;BME280;14857;41.200;-8.326;2022-09-13T00:11:15;98503.28;;;21.20;100.00
18145;BME280;14857;41.200;-8.326;2022-09-13T00:13:45;98494.03;;;21.29;100.00
18145;BME280;14857;41.200;-8.326;2022-09-13T00:16:16;98489.66;;;21.41;100.00
18145;BME280;14857;41.200;-8.326;2022-09-13T00:18:46;98490.09;;;21.63;100.00
18145;BME280;14857;41.200;-8.326;2022-09-13T00:21:17;98501.28;;;21.72;100.00
18145;BME280;14857;41.200;-8.326;2022-09-13T00:23:48;98486.94;;;21.73;100.00
18145;BME280;14857;41.200;-8.326;2022-09-13T00:26:19;98474.84;;;21.77;100.00
18145;BME280;14857;41.200;-8.326;2022-09-13T00:28:50;98476.63;;;21.83;100.00
18145;BME280;14857;41.200;-8.326;2022-09-13T00:31:19;98464.56;;;21.80;100.00
18145;BME280;14857;41.200;-8.326;2022-09-13T00:33:49;98464.56;;;21.80;100.00
18145;BME280;14857;41.200;-8.326;2022-09-13T00:36:18;98473.63;;;21.73;100.00
18145;BME280;14857;41.200;-8.326;2022-09-13T00:38:46;98474.94;;;21.64;100.00
18145;BME280;14857;41.200;-8.326;2022-09-13T00:41:18;98499.44;;;21.72;100.00
18145;BME280;14857;41.200;-8.326;2022-09-13T00:43:50;98488.41;;;21.69;100.00
18145;BME280;14857;41.200;-8.326;2022-09-13T00:46:26;98487.97;;;21.72;100.00
18145;BME280;14857;41.200;-8.326;2022-09-13T00:49:02;98471.84;;;21.67;100.00
18145;BME280;14857;41.200;-8.326;2022-09-13T00:51:35;98481.53;;;21.61;100.00
18145;BME280;14857;41.200;-8.326;2022-09-13T00:54:04;98489.50;;;21.61;100.00
18145;BME280;14857;41.200;-8.326;2022-09-13T00:56:34;98477.44;;;21.59;100.00
18145;BME280;14857;41.200;-8.326;2022-09-13T00:59:08;98472.09;;;21.59;100.00
18145;BME280;14857;41.200;-8.326;2022-09-13T01:01:44;98481.97;;;21.58;100.00
18145;BME280;14857;41.200;-8.326;2022-09-13T01:04:16;98489.56;;;21.55;100.00
18145;BME280;14857;41.200;-8.326;2022-09-13T01:06:48;98481.84;;;21.46;100.00
18145;BME280;14857;41.200;-8.326;2022-09-13T01:09:18;98471.91;;;21.35;100.00
18145;BME280;14857;41.200;-8.326;2022-09-13T01:11:48;98492.22;;;21.55;100.00
18145;BME280;14857;41.200;-8.326;2022-09-13T01:14:28;98484.44;;;21.53;100.00
18145;BME280;14857;41.200;-8.326;2022-09-13T01:16:57;98474.19;;;21.32;100.00
18145;BME280;14857;41.200;-8.326;2022-09-13T01:19:26;98477.31;;;21.22;100.00
18145;BME280;14857;41.200;-8.326;2022-09-13T01:22:35;98482.13;;;21.01;100.00
18145;BME280;14857;41.200;-8.326;2022-09-13T01:25:33;98476.16;;;21.05;100.00
18145;BME280;14857;41.200;-8.326;2022-09-13T01:28:17;98459.38;;;21.11;100.00
18145;BME280;14857;41.200;-8.326;2022-09-13T01:31:00;98473.50;;;21.12;100.00
18145;BME280;14857;41.200;-8.326;2022-09-13T01:33:38;98469.59;;;21.08;100.00
18145;BME280;14857;41.200;-8.326;2022-09-13T01:36:20;98478.81;;;21.05;100.00
18145;BME280;14857;41.200;-8.326;2022-09-13T01:38:58;98499.50;;;21.03;100.00
18145;BME280;14857;41.200;-8.326;2022-09-13T01:41:45;98495.00;;;20.97;100.00
18145;BME280;14857;41.200;-8.326;2022-09-13T01:44:24;98502.59;;;21.00;100.00
18145;BME280;14857;41.200;-8.326;2022-09-13T01:47:02;98507.53;;;20.90;100.00
18145;BME280;14857;41.200;-8.326;2022-09-13T01:49:42;98504.88;;;20.90;100.00
18145;BME280;14857;41.200;-8.326;2022-09-13T01:52:19;98503.25;;;20.89;100.00
18145;BME280;14857;41.200;-8.326;2022-09-13T01:54:53;98508.63;;;20.76;100.00
18145;BME280;14857;41.200;-8.326;2022-09-13T01:57:29;98501.94;;;20.60;100.00
18145;BME280;14857;41.200;-8.326;2022-09-13T02:00:03;98510.41;;;20.37;100.00
18145;BME280;14857;41.200;-8.326;2022-09-13T02:02:41;98511.66;;;20.22;100.00
18145;BME280;14857;41.200;-8.326;2022-09-13T02:05:16;98525.75;;;20.09;100.00
18145;BME280;14857;41.200;-8.326;2022-09-13T02:07:50;98536.16;;;20.04;100.00
18145;BME280;14857;41.200;-8.326;2022-09-13T02:10:24;98533.75;;;19.96;100.00
18145;BME280;14857;41.200;-8.326;2022-09-13T02:12:55;98525.16;;;19.87;100.00
18145;BME280;14857;41.200;-8.326;2022-09-13T02:15:28;98525.16;;;19.87;100.00
18145;BME280;14857;41.200;-8.326;2022-09-13T02:18:03;98531.69;;;19.78;100.00
18145;BME280;14857;41.200;-8.326;2022-09-13T02:20:37;98513.34;;;19.70;100.00
18145;BME280;14857;41.200;-8.326;2022-09-13T02:23:10;98529.69;;;19.74;100.00
18145;BME280;14857;41.200;-8.326;2022-09-13T02:25:43;98528.03;;;19.60;100.00
18145;BME280;14857;41.200;-8.326;2022-09-13T02:28:16;98517.81;;;19.44;100.00
18145;BME280;14857;41.200;-8.326;2022-09-13T02:30:50;98516.97;;;19.36;100.00
18145;BME280;14857;41.200;-8.326;2022-09-13T02:33:25;98501.03;;;19.23;100.00
18145;BME280;14857;41.200;-8.326;2022-09-13T02:35:59;98514.13;;;19.31;100.00
18145;BME280;14857;41.200;-8.326;2022-09-13T02:38:31;98514.13;;;19.31;100.00
18145;BME280;14857;41.200;-8.326;2022-09-13T02:41:06;98530.03;;;19.38;100.00
18145;BME280;14857;41.200;-8.326;2022-09-13T02:43:40;98511.25;;;19.33;100.00
18145;BME280;14857;41.200;-8.326;2022-09-13T02:46:18;98527.59;;;19.43;100.00
18145;BME280;14857;41.200;-8.326;2022-09-13T02:48:56;98532.91;;;19.50;100.00
18145;BME280;14857;41.200;-8.326;2022-09-13T02:51:31;98534.56;;;19.51;100.00
18145;BME280;14857;41.200;-8.326;2022-09-13T02:54:10;98527.19;;;19.46;100.00
18145;BME280;14857;41.200;-8.326;2022-09-13T02:56:48;98531.28;;;19.49;100.00
18145;BME280;14857;41.200;-8.326;2022-09-13T02:59:21;98527.19;;;19.46;100.00
18145;BME280;14857;41.200;-8.326;2022-09-13T03:01:55;98511.50;;;19.45;100.00
18145;BME280;14857;41.200;-8.326;2022-09-13T03:04:27;98502.09;;;19.49;100.00
18145;BME280;14857;41.200;-8.326;2022-09-13T03:06:56;98492.31;;;19.56;100.00
18145;BME280;14857;41.200;-8.326;2022-09-13T03:09:25;98501.31;;;19.55;100.00
18145;BME280;14857;41.200;-8.326;2022-09-13T03:12:16;98491.31;;;19.57;100.00
18145;BME280;14857;41.200;-8.326;2022-09-13T03:14:54;98491.91;;;19.59;100.00
18145;BME280;14857;41.200;-8.326;2022-09-13T03:17:39;98487.03;;;19.62;100.00
18145;BME280;14857;41.200;-8.326;2022-09-13T03:20:13;98487.44;;;19.66;100.00
18145;BME280;14857;41.200;-8.326;2022-09-13T03:22:57;98500.69;;;19.79;100.00
18145;BME280;14857;41.200;-8.326;2022-09-13T03:25:40;98491.31;;;19.76;100.00
18145;BME280;14857;41.200;-8.326;2022-09-13T03:28:18;98500.84;;;19.97;100.00
18145;BME280;14857;41.200;-8.326;2022-09-13T03:30:56;98502.06;;;20.08;100.00
18145;BME280;14857;41.200;-8.326;2022-09-13T03:33:35;98497.56;;;20.15;100.00
18145;BME280;14857;41.200;-8.326;2022-09-13T03:36:12;98507.19;;;20.16;100.00
18145;BME280;14857;41.200;-8.326;2022-09-13T03:38:46;98506.34;;;20.15;100.00
18145;BME280;14857;41.200;-8.326;2022-09-13T03:41:23;98495.34;;;20.12;100.00
18145;BME280;14857;41.200;-8.326;2022-09-13T03:43:56;98504.72;;;20.14;100.00
18145;BME280;14857;41.200;-8.326;2022-09-13T03:46:30;98498.59;;;20.14;100.00
18145;BME280;14857;41.200;-8.326;2022-09-13T03:49:02;98503.88;;;20.20;100.00
18145;BME280;14857;41.200;-8.326;2022-09-13T03:51:34;98495.50;;;20.23;100.00
18145;BME280;14857;41.200;-8.326;2022-09-13T03:54:06;98489.00;;;20.13;100.00
18145;BME280;14857;41.200;-8.326;2022-09-13T03:56:36;98495.09;;;20.20;100.00
18145;BME280;14857;41.200;-8.326;2022-09-13T03:59:05;98488.19;;;20.12;100.00
18145;BME280;14857;41.200;-8.326;2022-09-13T04:04:44;98492.47;;;20.07;100.00
18145;BME280;14857;41.200;-8.326;2022-09-13T04:07:16;98485.56;;;20.06;100.00
18145;BME280;14857;41.200;-8.326;2022-09-13T04:09:45;98491.69;;;20.06;100.00
18145;BME280;14857;41.200;-8.326;2022-09-13T04:12:14;98479.19;;;20.07;100.00
18145;BME280;14857;41.200;-8.326;2022-09-13T04:14:43;98489.38;;;20.16;100.00
18145;BME280;14857;41.200;-8.326;2022-09-13T04:17:12;98476.50;;;20.20;100.00
18145;BME280;14857;41.200;-8.326;2022-09-13T04:19:41;98472.47;;;20.11;100.00
18145;BME280;14857;41.200;-8.326;2022-09-13T04:22:14;98485.13;;;20.15;100.00
18145;BME280;14857;41.200;-8.326;2022-09-13T04:24:43;98491.44;;;20.14;100.00
18145;BME280;14857;41.200;-8.326;2022-09-13T04:27:12;98490.59;;;20.20;100.00
18145;BME280;14857;41.200;-8.326;2022-09-13T04:29:41;98488.34;;;20.24;100.00
18145;BME280;14857;41.200;-8.326;2022-09-13T04:32:09;98500.63;;;20.25;100.00
18145;BME280;14857;41.200;-8.326;2022-09-13T04:34:38;98496.53;;;20.22;100.00
18145;BME280;14857;41.200;-8.326;2022-09-13T04:37:07;98500.63;;;20.18;100.00
18145;BME280;14857;41.200;-8.326;2022-09-13T04:39:37;98495.53;;;20.10;100.00
18145;BME280;14857;41.200;-8.326;2022-09-13T04:42:06;98493.91;;;20.09;100.00
18145;BME280;14857;41.200;-8.326;2022-09-13T04:44:34;98500.66;;;20.05;100.00
18145;BME280;14857;41.200;-8.326;2022-09-13T04:47:03;98505.72;;;20.13;100.00
18145;BME280;14857;41.200;-8.326;2022-09-13T04:49:34;98494.94;;;20.08;100.00
18145;BME280;14857;41.200;-8.326;2022-09-13T04:52:02;98499.00;;;20.11;100.00
18145;BME280;14857;41.200;-8.326;2022-09-13T04:54:31;98496.34;;;20.11;100.00
18145;BME280;14857;41.200;-8.326;2022-09-13T04:57:00;98501.88;;;20.09;100.00
18145;BME280;14857;41.200;-8.326;2022-09-13T04:59:29;98501.88;;;20.09;100.00
18145;BME280;14857;41.200;-8.326;2022-09-13T05:01:58;98503.28;;;20.12;100.00
18145;BME280;14857;41.200;-8.326;2022-09-13T05:04:26;98490.84;;;20.12;100.00
18145;BME280;14857;41.200;-8.326;2022-09-13T05:06:55;98493.50;;;20.19;100.00
18145;BME280;14857;41.200;-8.326;2022-09-13T05:09:24;98487.94;;;20.20;100.00
18145;BME280;14857;41.200;-8.326;2022-09-13T05:11:53;98475.31;;;20.16;100.00
18145;BME280;14857;41.200;-8.326;2022-09-13T05:14:23;98487.13;;;20.20;100.00
18145;BME280;14857;41.200;-8.326;2022-09-13T05:16:51;98486.13;;;20.14;100.00
18145;BME280;14857;41.200;-8.326;2022-09-13T05:19:20;98475.72;;;20.19;100.00
18145;BME280;14857;41.200;-8.326;2022-09-13T05:21:48;98484.28;;;20.21;100.00
18145;BME280;14857;41.200;-8.326;2022-09-13T05:24:17;98503.47;;;20.23;100.00
18145;BME280;14857;41.200;-8.326;2022-09-13T05:26:45;98511.66;;;20.15;100.00
18145;BME280;14857;41.200;-8.326;2022-09-13T05:29:14;98516.97;;;20.09;100.00
18145;BME280;14857;41.200;-8.326;2022-09-13T05:31:44;98514.34;;;20.02;100.00
18145;BME280;14857;41.200;-8.326;2022-09-13T05:34:15;98509.44;;;19.99;100.00
18145;BME280;14857;41.200;-8.326;2022-09-13T05:36:46;98510.03;;;20.01;100.00
18145;BME280;14857;41.200;-8.326;2022-09-13T05:39:20;98514.94;;;19.98;100.00
18145;BME280;14857;41.200;-8.326;2022-09-13T05:42:09;98517.19;;;19.94;100.00
18145;BME280;14857;41.200;-8.326;2022-09-13T05:44:37;98515.78;;;19.91;100.00
18145;BME280;14857;41.200;-8.326;2022-09-13T05:47:07;98499.03;;;19.78;100.00
18145;BME280;14857;41.200;-8.326;2022-09-13T05:49:36;98506.41;;;19.76;100.00
18145;BME280;14857;41.200;-8.326;2022-09-13T05:52:24;98517.84;;;19.83;100.00
18145;BME280;14857;41.200;-8.326;2022-09-13T05:54:53;98516.41;;;19.74;100.00
18145;BME280;14857;41.200;-8.326;2022-09-13T05:57:22;98522.13;;;19.64;100.00
18145;BME280;14857;41.200;-8.326;2022-09-13T05:59:50;98522.31;;;19.63;100.00
18145;BME280;14857;41.200;-8.326;2022-09-13T06:02:20;98524.78;;;19.58;100.00
18145;BME280;14857;41.200;-8.326;2022-09-13T06:04:49;98526.38;;;19.59;100.00
18145;BME280;14857;41.200;-8.326;2022-09-13T06:07:18;98531.69;;;19.59;100.00
18145;BME280;14857;41.200;-8.326;2022-09-13T06:09:46;98518.25;;;19.54;100.00
18145;BME280;14857;41.200;-8.326;2022-09-13T06:12:14;98526.38;;;19.59;100.00
18145;BME280;14857;41.200;-8.326;2022-09-13T06:14:43;98534.75;;;19.62;100.00
18145;BME280;14857;41.200;-8.326;2022-09-13T06:17:11;98528.84;;;19.60;100.00
18145;BME280;14857;41.200;-8.326;2022-09-13T06:19:42;98525.56;;;19.65;100.00
18145;BME280;14857;41.200;-8.326;2022-09-13T06:22:10;98530.88;;;19.65;100.00
18145;BME280;14857;41.200;-8.326;2022-09-13T06:24:39;98547.00;;;19.70;100.00
18145;BME280;14857;41.200;-8.326;2022-09-13T06:27:07;98538.22;;;19.76;100.00
18145;BME280;14857;41.200;-8.326;2022-09-13T06:29:36;98541.50;;;19.78;100.00
18145;BME280;14857;41.200;-8.326;2022-09-13T06:32:05;98546.78;;;19.78;100.00
18145;BME280;14857;41.200;-8.326;2022-09-13T06:34:33;98543.53;;;19.82;100.00
18145;BME280;14857;41.200;-8.326;2022-09-13T06:37:03;98562.09;;;19.96;100.00
18145;BME280;14857;41.200;-8.326;2022-09-13T06:39:32;98558.22;;;19.98;100.00
18145;BME280;14857;41.200;-8.326;2022-09-13T06:42:00;98554.56;;;19.99;100.00
18145;BME280;14857;41.200;-8.326;2022-09-13T06:44:38;98563.34;;;20.00;100.00
18145;BME280;14857;41.200;-8.326;2022-09-13T06:47:07;98560.47;;;20.08;100.00
18145;BME280;14857;41.200;-8.326;2022-09-13T06:49:35;98562.09;;;20.09;100.00
18145;BME280;14857;41.200;-8.326;2022-09-13T06:52:05;98566.19;;;20.11;100.00
18145;BME280;14857;41.200;-8.326;2022-09-13T06:54:34;98561.88;;;20.10;100.00
18145;BME280;14857;41.200;-8.326;2022-09-13T06:57:03;98564.13;;;20.13;100.00
18145;BME280;14857;41.200;-8.326;2022-09-13T06:59:31;98570.47;;;20.12;100.00
18145;BME280;14857;41.200;-8.326;2022-09-13T07:02:01;98571.28;;;20.13;100.00
18145;BME280;14857;41.200;-8.326;2022-09-13T07:04:30;98573.31;;;20.17;100.00
18145;BME280;14857;41.200;-8.326;2022-09-13T07:06:58;98573.94;;;20.19;100.00
18145;BME280;14857;41.200;-8.326;2022-09-13T07:09:28;98575.78;;;20.25;100.00
18145;BME280;14857;41.200;-8.326;2022-09-13T07:11:57;98571.69;;;20.29;100.00
18145;BME280;14857;41.200;-8.326;2022-09-13T07:14:27;98574.13;;;20.37;100.00
18145;BME280;14857;41.200;-8.326;2022-09-13T07:16:56;98583.91;;;20.50;100.00
18145;BME280;14857;41.200;-8.326;2022-09-13T07:19:26;98572.84;;;20.60;100.00
18145;BME280;14857;41.200;-8.326;2022-09-13T07:21:56;98565.72;;;20.60;100.00
18145;BME280;14857;41.200;-8.326;2022-09-13T07:24:25;98581.81;;;20.65;100.00
18145;BME280;14857;41.200;-8.326;2022-09-13T07:26:55;98572.00;;;20.66;100.00
18145;BME280;14857;41.200;-8.326;2022-09-13T07:29:23;98580.53;;;20.81;100.00
18145;BME280;14857;41.200;-8.326;2022-09-13T07:31:53;98577.75;;;20.63;100.00
18145;BME280;14857;41.200;-8.326;2022-09-13T07:34:24;98588.78;;;20.60;100.00
18145;BME280;14857;41.200;-8.326;2022-09-13T07:36:53;98583.06;;;20.56;100.00
18145;BME280;14857;41.200;-8.326;2022-09-13T07:39:22;98577.75;;;20.63;100.00
18145;BME280;14857;41.200;-8.326;2022-09-13T07:41:51;98588.38;;;20.63;100.00
18145;BME280;14857;41.200;-8.326;2022-09-13T07:44:22;98593.25;;;20.66;100.00
18145;BME280;14857;41.200;-8.326;2022-09-13T07:46:50;98593.47;;;20.71;100.00
18145;BME280;14857;41.200;-8.326;2022-09-13T07:49:19;98609.16;;;20.79;100.00
18145;BME280;14857;41.200;-8.326;2022-09-13T07:51:47;98596.09;;;20.84;100.00
18145;BME280;14857;41.200;-8.326;2022-09-13T07:54:18;98594.31;;;21.22;100.00
18145;BME280;14857;41.200;-8.326;2022-09-13T07:56:47;98596.00;;;21.48;100.00
18145;BME280;14857;41.200;-8.326;2022-09-13T07:59:18;98584.59;;;21.41;100.00
18145;BME280;14857;41.200;-8.326;2022-09-13T08:01:49;98568.91;;;21.26;100.00
18145;BME280;14857;41.200;-8.326;2022-09-13T08:04:19;98590.84;;;21.22;100.00
18145;BME280;14857;41.200;-8.326;2022-09-13T08:06:48;98586.38;;;21.16;100.00
18145;BME280;14857;41.200;-8.326;2022-09-13T08:09:17;98590.16;;;21.33;100.00
18145;BME280;14857;41.200;-8.326;2022-09-13T08:11:48;98586.81;;;21.44;100.00
18145;BME280;14857;41.200;-8.326;2022-09-13T08:14:20;98590.78;;;22.22;100.00
18145;BME280;14857;41.200;-8.326;2022-09-13T08:16:53;98569.88;;;23.28;100.00
18145;BME280;14857;41.200;-8.326;2022-09-13T08:19:22;98577.03;;;23.16;100.00
18145;BME280;14857;41.200;-8.326;2022-09-13T08:21:50;98591.88;;;22.76;100.00
18145;BME280;14857;41.200;-8.326;2022-09-13T08:24:20;98591.56;;;22.66;100.00
18145;BME280;14857;41.200;-8.326;2022-09-13T08:26:48;98598.59;;;22.60;100.00
18145;BME280;14857;41.200;-8.326;2022-09-13T08:29:18;98596.69;;;22.42;100.00
18145;BME280;14857;41.200;-8.326;2022-09-13T08:31:46;98576.31;;;22.91;100.00
18145;BME280;14857;41.200;-8.326;2022-09-13T08:34:16;98587.34;;;23.13;100.00
18145;BME280;14857;41.200;-8.326;2022-09-13T08:36:47;98590.41;;;22.80;100.00
18145;BME280;14857;41.200;-8.326;2022-09-13T08:39:16;98611.72;;;22.37;100.00
18145;BME280;14857;41.200;-8.326;2022-09-13T08:42:03;98608.66;;;21.84;100.00
18145;BME280;14857;41.200;-8.326;2022-09-13T08:44:42;98615.69;;;21.72;100.00
18145;BME280;14857;41.200;-8.326;2022-09-13T08:47:37;98616.03;;;22.38;100.00
18145;BME280;14857;41.200;-8.326;2022-09-13T08:50:16;98609.94;;;23.10;100.00
18145;BME280;14857;41.200;-8.326;2022-09-13T08:52:58;98606.00;;;24.83;100.00
18145;BME280;14857;41.200;-8.326;2022-09-13T08:55:40;98600.47;;;25.13;100.00
18145;BME280;14857;41.200;-8.326;2022-09-13T09:01:20;98597.47;;;25.38;100.00
18145;BME280;14857;41.200;-8.326;2022-09-13T09:03:57;98610.44;;;24.54;100.00
18145;BME280;14857;41.200;-8.326;2022-09-13T09:06:29;98611.00;;;24.10;100.00
18145;BME280;14857;41.200;-8.326;2022-09-13T09:09:02;98625.13;;;23.39;100.00
18145;BME280;14857;41.200;-8.326;2022-09-13T09:11:36;98620.91;;;23.50;100.00
18145;BME280;14857;41.200;-8.326;2022-09-13T09:14:16;98626.69;;;23.77;100.00
18145;BME280;14857;41.200;-8.326;2022-09-13T09:16:48;98608.50;;;23.56;100.00
18145;BME280;14857;41.200;-8.326;2022-09-13T09:19:20;98624.78;;;23.54;100.00
18145;BME280;14857;41.200;-8.326;2022-09-13T09:21:54;98631.34;;;23.22;100.00
18145;BME280;14857;41.200;-8.326;2022-09-13T09:24:24;98632.47;;;22.96;100.00
18145;BME280;14857;41.200;-8.326;2022-09-13T09:26:53;98629.78;;;22.96;100.00
18145;BME280;14857;41.200;-8.326;2022-09-13T09:29:26;98641.50;;;22.77;100.00
18145;BME280;14857;41.200;-8.326;2022-09-13T09:32:07;98634.44;;;23.00;100.00
18145;BME280;14857;41.200;-8.326;2022-09-13T09:34:50;98640.28;;;23.45;100.00
18145;BME280;14857;41.200;-8.326;2022-09-13T09:37:25;98647.69;;;23.62;100.00
18145;BME280;14857;41.200;-8.326;2022-09-13T09:39:58;98659.47;;;23.84;100.00
18145;BME280;14857;41.200;-8.326;2022-09-13T09:42:38;98661.19;;;23.30;100.00
18145;BME280;14857;41.200;-8.326;2022-09-13T09:45:22;98657.03;;;22.98;100.00
18145;BME280;14857;41.200;-8.326;2022-09-13T09:47:54;98669.22;;;22.94;100.00
18145;BME280;14857;41.200;-8.326;2022-09-13T09:50:25;98672.22;;;22.79;100.00
18145;BME280;14857;41.200;-8.326;2022-09-13T09:52:58;98682.56;;;22.69;100.00
18145;BME280;14857;41.200;-8.326;2022-09-13T09:55:30;98678.91;;;22.64;100.00
18145;BME280;14857;41.200;-8.326;2022-09-13T09:58:01;98687.56;;;23.02;100.00
18145;BME280;14857;41.200;-8.326;2022-09-13T10:00:34;98664.59;;;23.19;100.00
18145;BME280;14857;41.200;-8.326;2022-09-13T10:03:05;98664.56;;;24.15;100.00
18145;BME280;14857;41.200;-8.326;2022-09-13T10:05:35;98662.28;;;25.40;100.00
18145;BME280;14857;41.200;-8.326;2022-09-13T10:08:06;98652.16;;;26.15;100.00
18145;BME280;14857;41.200;-8.326;2022-09-13T10:10:37;98643.97;;;27.10;100.00
18145;BME280;14857;41.200;-8.326;2022-09-13T10:13:14;98645.06;;;27.57;100.00
18145;BME280;14857;41.200;-8.326;2022-09-13T10:15:54;98649.16;;;27.92;100.00
18145;BME280;14857;41.200;-8.326;2022-09-13T10:18:25;98647.78;;;29.47;100.00
18145;BME280;14857;41.200;-8.326;2022-09-13T10:21:21;98647.19;;;29.30;100.00
18145;BME280;14857;41.200;-8.326;2022-09-13T10:24:15;98643.75;;;27.87;100.00
18145;BME280;14857;41.200;-8.326;2022-09-13T10:26:45;98634.03;;;28.07;100.00
18145;BME280;14857;41.200;-8.326;2022-09-13T10:29:15;98641.44;;;26.82;100.00
18145;BME280;14857;41.200;-8.326;2022-09-13T10:31:47;98632.25;;;25.78;100.00
18145;BME280;14857;41.200;-8.326;2022-09-13T10:34:21;98634.66;;;25.11;100.00
18145;BME280;14857;41.200;-8.326;2022-09-13T10:36:53;98632.63;;;24.43;100.00
18145;BME280;14857;41.200;-8.326;2022-09-13T10:39:25;98643.78;;;24.40;100.00
18145;BME280;14857;41.200;-8.326;2022-09-13T10:41:58;98651.94;;;23.92;100.00
18145;BME280;14857;41.200;-8.326;2022-09-13T10:44:31;98665.63;;;23.18;100.00
18145;BME280;14857;41.200;-8.326;2022-09-13T10:47:03;98691.66;;;22.62;100.00
18145;BME280;14857;41.200;-8.326;2022-09-13T10:49:38;98716.56;;;22.18;100.00
18145;BME280;14857;41.200;-8.326;2022-09-13T10:52:31;98733.19;;;21.75;100.00
18145;BME280;14857;41.200;-8.326;2022-09-13T10:55:27;98737.47;;;21.25;100.00
18145;BME280;14857;41.200;-8.326;2022-09-13T10:58:12;98749.78;;;21.00;100.00
18145;BME280;14857;41.200;-8.326;2022-09-13T11:06:38;98750.63;;;20.55;100.00
18145;BME280;14857;41.200;-8.326;2022-09-13T11:09:13;98757.38;;;20.57;100.00
18145;BME280;14857;41.200;-8.326;2022-09-13T11:11:50;98746.94;;;20.69;100.00
18145;BME280;14857;41.200;-8.326;2022-09-13T11:14:39;98737.72;;;20.84;100.00
18145;BME280;14857;41.200;-8.326;2022-09-13T11:17:20;98742.81;;;21.19;100.00
18145;BME280;14857;41.200;-8.326;2022-09-13T11:20:06;98740.94;;;21.90;100.00
18145;BME280;14857;41.200;-8.326;2022-09-13T11:23:07;98734.88;;;22.88;100.00
18145;BME280;14857;41.200;-8.326;2022-09-13T11:25:50;98715.09;;;23.69;100.00
18145;BME280;14857;41.200;-8.326;2022-09-13T11:28:31;98692.09;;;24.27;100.00
18145;BME280;14857;41.200;-8.326;2022-09-13T11:31:20;98701.09;;;25.66;100.00
18145;BME280;14857;41.200;-8.326;2022-09-13T11:34:02;98691.63;;;27.03;100.00
18145;BME280;14857;41.200;-8.326;2022-09-13T11:36:55;98673.88;;;27.62;100.00
18145;BME280;14857;41.200;-8.326;2022-09-13T11:39:30;98661.78;;;28.18;100.00
18145;BME280;14857;41.200;-8.326;2022-09-13T11:42:07;98679.06;;;29.63;100.00
18145;BME280;14857;41.200;-8.326;2022-09-13T11:45:13;98686.34;;;27.73;100.00
18145;BME280;14857;41.200;-8.326;2022-09-13T11:47:56;98666.72;;;27.73;100.00
18145;BME280;14857;41.200;-8.326;2022-09-13T11:50:35;98666.59;;;28.11;100.00
18145;BME280;14857;41.200;-8.326;2022-09-13T11:53:23;98668.47;;;27.19;100.00
18145;BME280;14857;41.200;-8.326;2022-09-13T11:55:59;98663.94;;;27.62;100.00
18145;BME280;14857;41.200;-8.326;2022-09-13T11:58:33;98679.84;;;27.69;100.00
18145;BME280;14857;41.200;-8.326;2022-09-13T12:01:06;98673.25;;;26.23;100.00
18145;BME280;14857;41.200;-8.326;2022-09-13T12:03:41;98656.44;;;25.54;100.00
18145;BME280;14857;41.200;-8.326;2022-09-13T12:06:18;98675.06;;;25.49;100.00
18145;BME280;14857;41.200;-8.326;2022-09-13T12:08:50;98665.31;;;26.00;100.00
18145;BME280;14857;41.200;-8.326;2022-09-13T12:11:22;98660.59;;;26.90;100.00
18145;BME280;14857;41.200;-8.326;2022-09-13T12:13:54;98661.56;;;26.29;100.00
18145;BME280;14857;41.200;-8.326;2022-09-13T12:16:29;98659.59;;;25.80;100.00
18145;BME280;14857;41.200;-8.326;2022-09-13T12:19:05;98654.34;;;25.05;100.00
18145;BME280;14857;41.200;-8.326;2022-09-13T12:21:37;98658.69;;;24.83;100.00
18145;BME280;14857;41.200;-8.326;2022-09-13T12:24:12;98669.00;;;25.02;100.00
18145;BME280;14857;41.200;-8.326;2022-09-13T12:26:47;98651.91;;;25.43;100.00
18145;BME280;14857;41.200;-8.326;2022-09-13T12:29:19;98666.81;;;25.51;100.00
18145;BME280;14857;41.200;-8.326;2022-09-13T12:31:57;98672.25;;;25.56;100.00
18145;BME280;14857;41.200;-8.326;2022-09-13T12:34:31;98660.47;;;25.17;100.00
18145;BME280;14857;41.200;-8.326;2022-09-13T12:37:11;98647.59;;;25.99;100.00
18145;BME280;14857;41.200;-8.326;2022-09-13T12:43:14;98649.69;;;26.25;100.00
18145;BME280;14857;41.200;-8.326;2022-09-13T12:46:08;98648.78;;;25.75;100.00
18145;BME280;14857;41.200;-8.326;2022-09-13T12:51:55;98620.28;;;24.66;100.00
18145;BME280;14857;41.200;-8.326;2022-09-13T12:54:50;98650.44;;;24.61;100.00
18145;BME280;14857;41.200;-8.326;2022-09-13T12:57:32;98658.69;;;24.83;100.00
18145;BME280;14857;41.200;-8.326;2022-09-13T13:00:17;98629.16;;;24.31;100.00
18145;BME280;14857;41.200;-8.326;2022-09-13T13:03:00;98648.88;;;24.30;100.00
18145;BME280;14857;41.200;-8.326;2022-09-13T13:05:40;98663.53;;;24.16;100.00
18145;BME280;14857;41.200;-8.326;2022-09-13T13:08:24;98678.38;;;23.52;100.00
18145;BME280;14857;41.200;-8.326;2022-09-13T13:11:02;98701.47;;;22.36;100.00
18145;BME280;14857;41.200;-8.326;2022-09-13T13:13:35;98708.59;;;22.42;100.00
18145;BME280;14857;41.200;-8.326;2022-09-13T13:16:20;98700.22;;;22.64;100.00
18145;BME280;14857;41.200;-8.326;2022-09-13T13:18:50;98686.09;;;23.24;100.00
18145;BME280;14857;41.200;-8.326;2022-09-13T13:21:40;98665.31;;;24.04;100.00
18145;BME280;14857;41.200;-8.326;2022-09-13T13:24:37;98671.44;;;24.23;100.00
18145;BME280;14857;41.200;-8.326;2022-09-13T13:27:40;98681.56;;;24.44;100.00
18145;BME280;14857;41.200;-8.326;2022-09-13T13:30:40;98665.50;;;24.21;100.00
18145;BME280;14857;41.200;-8.326;2022-09-13T13:33:16;98678.41;;;24.35;100.00
18145;BME280;14857;41.200;-8.326;2022-09-13T13:35:46;98652.69;;;23.70;100.00